Time;durP1;ratioP1;P1;durP2;ratioP2;P2;SDS_P1;SDS_P2;PMS_P1;PMS_P2;Temp;Humidity;BMP_temperature;BMP_pressure;BME280_temperature;BME280_humidity;BME280_pressure;Samples;Min_cycle;Max_cycle;Signal;HPM_P1;HPM_P2
2022/12/01 00:00:57;;;;;;;89.20;61.75;;;15.90;65.40;;;;;;4986536;28;85319;-56
2022/12/01 00:03:22;;;;;;;89.35;60.25;;;16.00;65.40;;;;;;4995678;28;87203;-55
2022/12/01 00:06:01;;;;;;;90.38;60.53;;;15.90;65.40;;;;;;4998405;28;84833;-55
2022/12/01 00:08:27;;;;;;;87.72;60.15;;;15.90;65.40;;;;;;4992946;28;85938;-54
2022/12/01 00:10:54;;;;;;;89.32;59.67;;;15.90;65.40;;;;;;4989333;28;85489;-55
2022/12/01 00:13:20;;;;;;;86.90;59.95;;;15.90;65.40;;;;;;4983850;28;85794;-54
2022/12/01 00:15:45;;;;;;;87.95;60.22;;;15.90;65.40;;;;;;4997514;28;85384;-55
2022/12/01 00:18:11;;;;;;;87.78;60.60;;;15.90;65.50;;;;;;4987503;28;86719;-55
2022/12/01 00:20:36;;;;;;;87.57;60.47;;;15.90;65.40;;;;;;4997643;28;84987;-55
2022/12/01 00:23:02;;;;;;;89.88;59.53;;;15.90;65.40;;;;;;4986664;28;85472;-56
2022/12/01 00:25:28;;;;;;;87.53;59.97;;;15.90;65.50;;;;;;4988233;28;89701;-54
2022/12/01 00:27:54;;;;;;;84.38;59.13;;;15.80;65.60;;;;;;4978408;28;85202;-55
2022/12/01 00:30:21;;;;;;;86.43;59.63;;;15.80;65.60;;;;;;4992211;28;84542;-54
2022/12/01 00:32:47;;;;;;;91.18;60.95;;;15.80;65.60;;;;;;4986451;28;85560;-56
2022/12/01 00:35:15;;;;;;;84.60;59.47;;;15.70;65.50;;;;;;4989710;28;85157;-54
2022/12/01 00:37:41;;;;;;;87.78;60.97;;;15.70;65.70;;;;;;4990562;28;85694;-54
2022/12/01 00:40:08;;;;;;;89.35;60.60;;;15.70;65.60;;;;;;4995210;28;85601;-55
2022/12/01 00:42:34;;;;;;;91.45;61.10;;;15.70;65.60;;;;;;4988314;28;85387;-55
2022/12/01 00:45:00;;;;;;;90.15;60.50;;;15.70;65.60;;;;;;4997241;28;85618;-55
2022/12/01 00:47:25;;;;;;;89.13;60.47;;;15.70;65.60;;;;;;4941275;28;87848;-54
2022/12/01 00:49:51;;;;;;;88.65;60.92;;;15.70;65.40;;;;;;4991498;28;85647;-53
2022/12/01 00:52:18;;;;;;;89.53;59.92;;;15.70;65.60;;;;;;4986136;28;87208;-53
2022/12/01 00:54:44;;;;;;;89.15;60.08;;;15.70;65.60;;;;;;4994191;28;84905;-56
2022/12/01 00:57:10;;;;;;;86.45;60.33;;;15.70;65.60;;;;;;4976222;28;85445;-55
2022/12/01 00:59:36;;;;;;;86.35;59.78;;;15.60;65.60;;;;;;4993988;28;85235;-56
2022/12/01 01:02:03;;;;;;;87.20;59.72;;;15.60;65.40;;;;;;4989042;28;86346;-55
2022/12/01 01:04:29;;;;;;;85.00;59.67;;;15.60;65.70;;;;;;4996199;28;85002;-54
2022/12/01 01:06:55;;;;;;;89.38;61.00;;;15.60;65.60;;;;;;4996509;28;85623;-53
2022/12/01 01:09:21;;;;;;;87.70;59.33;;;15.60;65.60;;;;;;4996127;28;85739;-54
2022/12/01 01:11:47;;;;;;;84.47;59.05;;;15.60;65.50;;;;;;4998095;28;85405;-53
2022/12/01 01:14:12;;;;;;;85.43;59.17;;;15.60;65.40;;;;;;4995776;28;85966;-54
2022/12/01 01:16:38;;;;;;;86.05;59.55;;;15.60;65.60;;;;;;4998827;28;85618;-54
2022/12/01 01:19:04;;;;;;;87.25;59.83;;;15.60;65.60;;;;;;4997289;28;85358;-53
2022/12/01 01:21:29;;;;;;;86.15;60.38;;;15.60;65.50;;;;;;4998255;28;86404;-54
2022/12/01 01:23:56;;;;;;;85.82;59.13;;;15.60;65.50;;;;;;4995741;28;85294;-55
2022/12/01 01:26:24;;;;;;;86.72;59.30;;;15.50;65.60;;;;;;4991892;28;85533;-56
2022/12/01 01:28:50;;;;;;;85.25;59.17;;;15.50;66.30;;;;;;4990807;28;85799;-56
2022/12/01 01:31:20;;;;;;;83.97;59.28;;;15.50;65.60;;;;;;5001241;28;85292;-55
2022/12/01 01:33:46;;;;;;;86.95;59.63;;;15.50;65.40;;;;;;4998544;28;85165;-54
2022/12/01 01:36:13;;;;;;;84.78;58.80;;;15.50;65.50;;;;;;4996133;28;86310;-55
2022/12/01 01:38:38;;;;;;;85.75;59.72;;;15.50;65.50;;;;;;4990493;28;88198;-55
2022/12/01 01:41:05;;;;;;;84.32;58.90;;;15.50;65.40;;;;;;4993766;28;87747;-56
2022/12/01 01:43:49;;;;;;;86.50;59.40;;;15.50;65.40;;;;;;4995860;28;87649;-53
2022/12/01 01:46:17;;;;;;;85.93;59.20;;;15.50;65.50;;;;;;4998005;28;85482;-55
2022/12/01 01:48:58;;;;;;;85.90;58.65;;;15.50;65.50;;;;;;4991521;28;88744;-54
2022/12/01 01:51:52;;;;;;;87.13;59.65;;;15.50;65.40;;;;;;4993536;28;84984;-56
2022/12/01 01:54:25;;;;;;;85.18;59.47;;;15.50;65.40;;;;;;4999321;28;85484;-54
2022/12/01 01:56:51;;;;;;;86.47;60.05;;;15.50;65.40;;;;;;4995075;28;85818;-54
2022/12/01 01:59:23;;;;;;;85.30;59.35;;;15.50;65.20;;;;;;4997749;28;85525;-56
2022/12/01 02:01:59;;;;;;;85.05;59.55;;;15.40;65.30;;;;;;4990688;28;85410;-55
2022/12/01 02:04:25;;;;;;;85.07;59.40;;;15.40;65.50;;;;;;4994419;28;86881;-55
2022/12/01 02:06:51;;;;;;;88.25;60.70;;;15.40;65.30;;;;;;4995181;28;87352;-54
2022/12/01 02:09:17;;;;;;;85.03;59.88;;;15.40;65.50;;;;;;4975659;28;85062;-53
2022/12/01 02:11:53;;;;;;;86.57;59.60;;;15.40;65.40;;;;;;4997767;28;85469;-54
2022/12/01 02:14:45;;;;;;;85.03;58.92;;;15.40;65.40;;;;;;4992838;28;86020;-55
2022/12/01 02:17:29;;;;;;;;;;;15.40;65.20;;;;;;4988272;28;86099;-55
2022/12/01 02:20:34;;;;;;;81.93;58.92;;;15.40;65.30;;;;;;5002111;28;84255;-55
2022/12/01 02:23:21;;;;;;;84.35;59.28;;;15.40;65.20;;;;;;4993389;28;85646;-55
2022/12/01 02:26:30;;;;;;;87.32;59.60;;;15.40;65.40;;;;;;4993689;28;87372;-55
2022/12/01 02:29:11;;;;;;;85.43;59.17;;;15.40;65.30;;;;;;4974987;28;87719;-55
2022/12/01 02:31:46;;;;;;;84.20;59.20;;;15.40;65.30;;;;;;4991896;28;85664;-55
2022/12/01 02:34:11;;;;;;;83.82;59.28;;;15.40;65.40;;;;;;4990789;28;89934;-53
2022/12/01 02:37:03;;;;;;;84.38;59.08;;;15.40;65.20;;;;;;4997714;28;85461;-57
2022/12/01 02:39:37;;;;;;;82.53;58.45;;;15.40;65.20;;;;;;4999496;28;85792;-53
2022/12/01 02:45:19;;;;;;;84.38;59.10;;;15.40;65.20;;;;;;4995772;28;84968;-56
2022/12/01 02:47:47;;;;;;;86.10;59.80;;;15.30;65.00;;;;;;4997384;28;85665;-53
2022/12/01 02:50:13;;;;;;;85.80;59.80;;;15.30;65.10;;;;;;4986507;28;85283;-54
2022/12/01 02:52:40;;;;;;;85.65;59.55;;;15.30;65.30;;;;;;4984061;28;85661;-56
2022/12/01 02:55:06;;;;;;;82.57;58.63;;;15.30;65.30;;;;;;4990667;28;84796;-56
2022/12/01 02:57:31;;;;;;;85.18;59.67;;;15.30;65.10;;;;;;4997361;28;85302;-53
2022/12/01 02:59:58;;;;;;;84.90;59.92;;;15.30;65.30;;;;;;4986627;28;86140;-55
2022/12/01 03:02:57;;;;;;;85.03;59.05;;;15.30;65.00;;;;;;4983597;28;89725;-54
2022/12/01 03:05:35;;;;;;;84.55;59.03;;;15.30;65.30;;;;;;4993481;28;85525;-55
2022/12/01 03:08:28;;;;;;;83.47;58.58;;;15.30;65.10;;;;;;4988386;28;85322;-53
2022/12/01 03:10:56;;;;;;;84.03;59.42;;;15.30;65.20;;;;;;4986252;28;85181;-55
2022/12/01 03:13:44;;;;;;;85.20;59.83;;;15.30;65.00;;;;;;4991883;28;86149;-54
2022/12/01 03:16:14;;;;;;;81.07;57.97;;;15.30;65.20;;;;;;4993979;28;85999;-55
2022/12/01 03:19:06;;;;;;;83.63;59.10;;;15.30;65.30;;;;;;4987028;28;85316;-55
2022/12/01 03:21:43;;;;;;;84.20;59.55;;;15.30;65.20;;;;;;4997915;27;84939;-55
2022/12/01 03:24:18;;;;;;;81.38;57.55;;;15.30;65.00;;;;;;4992605;28;86568;-55
2022/12/01 03:26:48;;;;;;;83.35;58.92;;;15.30;65.00;;;;;;4991567;28;90127;-54
2022/12/01 03:29:20;;;;;;;84.97;59.20;;;15.20;65.00;;;;;;4990322;28;85796;-57
2022/12/01 03:31:57;;;;;;;82.85;58.50;;;15.20;65.30;;;;;;4992581;28;85597;-56
2022/12/01 03:34:33;;;;;;;81.60;58.70;;;15.20;65.10;;;;;;4985744;27;85484;-55
2022/12/01 03:37:06;;;;;;;84.88;59.17;;;15.20;65.10;;;;;;4997356;28;85360;-55
2022/12/01 03:39:34;;;;;;;82.68;57.88;;;15.20;65.10;;;;;;4989129;28;85090;-56
2022/12/01 03:42:18;;;;;;;86.13;59.70;;;15.20;65.30;;;;;;4984445;28;85397;-55
2022/12/01 03:44:48;;;;;;;82.10;58.40;;;15.20;65.40;;;;;;4994775;28;85639;-55
2022/12/01 03:47:23;;;;;;;82.85;58.45;;;15.20;65.30;;;;;;4947275;28;88107;-53
2022/12/01 03:49:51;;;;;;;81.60;57.75;;;15.20;65.20;;;;;;4992092;28;85855;-55
2022/12/01 03:52:30;;;;;;;82.30;58.58;;;15.10;65.20;;;;;;4991538;28;85524;-56
2022/12/01 03:55:14;;;;;;;81.57;58.20;;;15.10;65.30;;;;;;4992898;28;86891;-54
2022/12/01 03:57:55;;;;;;;80.50;58.40;;;15.20;65.30;;;;;;4994500;28;85306;-54
2022/12/01 04:00:21;;;;;;;79.63;57.17;;;15.20;65.00;;;;;;4991434;28;85196;-56
2022/12/01 04:02:47;;;;;;;84.78;58.50;;;15.20;65.10;;;;;;4995655;28;86220;-53
2022/12/01 04:05:13;;;;;;;82.68;58.67;;;15.20;65.10;;;;;;4988924;28;85429;-55
2022/12/01 04:07:39;;;;;;;82.45;57.75;;;15.20;65.10;;;;;;4986061;28;86263;-56
2022/12/01 04:10:06;;;;;;;81.57;58.83;;;15.20;65.10;;;;;;4989550;28;86956;-56
2022/12/01 04:12:32;;;;;;;82.75;58.58;;;15.10;65.10;;;;;;4988234;28;85934;-54
2022/12/01 04:15:11;;;;;;;80.15;58.22;;;15.20;65.30;;;;;;4994241;28;86383;-56
2022/12/01 04:17:37;;;;;;;79.70;57.28;;;15.10;65.20;;;;;;4983809;28;85569;-54
2022/12/01 04:20:05;;;;;;;83.28;57.72;;;15.10;65.10;;;;;;4985942;28;86865;-55
2022/12/01 04:22:31;;;;;;;79.50;57.22;;;15.10;65.20;;;;;;4990935;28;86645;-53
2022/12/01 04:24:57;;;;;;;81.50;57.85;;;15.10;65.20;;;;;;4989544;28;86324;-55
2022/12/01 04:27:23;;;;;;;80.95;57.45;;;15.10;65.10;;;;;;4991463;28;85072;-55
2022/12/01 04:29:49;;;;;;;80.75;57.28;;;15.10;65.30;;;;;;4986841;28;88811;-54
2022/12/01 04:32:15;;;;;;;79.22;56.90;;;15.10;65.10;;;;;;4989915;28;84888;-55
2022/12/01 04:34:40;;;;;;;80.15;57.63;;;15.10;65.10;;;;;;4993659;28;85657;-55
2022/12/01 04:37:08;;;;;;;81.68;57.08;;;15.10;65.20;;;;;;4987303;28;84931;-55
2022/12/01 04:39:34;;;;;;;79.82;56.65;;;15.10;65.30;;;;;;4977486;28;84899;-52
2022/12/01 04:42:00;;;;;;;80.25;57.25;;;15.10;65.30;;;;;;4986004;28;89454;-55
2022/12/01 04:44:26;;;;;;;79.85;57.10;;;15.00;65.20;;;;;;4984213;28;85553;-55
2022/12/01 04:46:52;;;;;;;79.13;56.78;;;15.00;65.10;;;;;;4990131;28;85510;-55
2022/12/01 04:49:19;;;;;;;79.55;57.88;;;15.00;65.20;;;;;;4988899;28;85536;-54
2022/12/01 04:51:45;;;;;;;80.10;57.55;;;15.00;65.20;;;;;;4994608;28;85010;-54
2022/12/01 04:54:11;;;;;;;79.63;56.95;;;15.00;65.10;;;;;;4974564;28;85236;-56
2022/12/01 04:56:36;;;;;;;79.72;57.10;;;15.10;65.20;;;;;;4987030;28;85923;-55
2022/12/01 04:59:02;;;;;;;79.80;57.20;;;15.00;65.10;;;;;;4986954;28;84933;-54
2022/12/01 05:01:28;;;;;;;80.22;57.35;;;15.00;65.20;;;;;;4991256;28;84975;-54
2022/12/01 05:03:54;;;;;;;80.15;57.70;;;15.00;65.20;;;;;;4989511;28;84956;-55
2022/12/01 05:06:24;;;;;;;81.80;57.75;;;15.00;65.10;;;;;;4984955;28;85667;-55
2022/12/01 05:08:50;;;;;;;77.93;56.80;;;15.00;65.10;;;;;;4984111;28;85170;-56
2022/12/01 05:11:17;;;;;;;79.75;57.08;;;15.00;65.30;;;;;;4986620;28;85841;-55
2022/12/01 05:13:46;;;;;;;79.63;56.90;;;15.00;65.20;;;;;;4993191;28;85362;-55
2022/12/01 05:16:15;;;;;;;80.03;56.20;;;14.90;65.30;;;;;;4991838;27;84962;-55
2022/12/01 05:18:41;;;;;;;78.88;56.88;;;14.90;65.40;;;;;;4991885;28;85121;-54
2022/12/01 05:21:09;;;;;;;80.28;56.85;;;14.90;65.40;;;;;;4994042;28;85262;-53
2022/12/01 05:23:36;;;;;;;80.65;57.40;;;14.90;66.10;;;;;;4984717;28;84876;-54
2022/12/01 05:26:04;;;;;;;78.13;56.90;;;14.90;65.50;;;;;;4991622;28;85883;-52
2022/12/01 05:28:30;;;;;;;77.53;55.90;;;14.90;65.40;;;;;;4994617;28;86058;-53
2022/12/01 05:30:56;;;;;;;79.00;56.72;;;14.90;65.40;;;;;;4995007;28;85125;-51
2022/12/01 05:33:23;;;;;;;79.05;57.10;;;14.90;65.30;;;;;;4989290;28;85534;-55
2022/12/01 05:35:49;;;;;;;81.28;58.10;;;14.90;65.30;;;;;;4990065;28;86692;-54
2022/12/01 05:38:15;;;;;;;81.93;57.33;;;14.90;65.30;;;;;;4996389;28;84750;-54
2022/12/01 05:40:41;;;;;;;78.95;56.75;;;14.80;65.30;;;;;;4989591;28;85656;-55
2022/12/01 05:43:07;;;;;;;80.05;57.45;;;14.80;65.50;;;;;;4988184;28;87033;-54
2022/12/01 05:45:34;;;;;;;80.40;57.95;;;14.90;65.50;;;;;;4982740;28;86469;-54
2022/12/01 05:48:01;;;;;;;82.80;58.95;;;14.90;65.40;;;;;;4960320;28;85882;-54
2022/12/01 05:50:28;;;;;;;84.00;58.42;;;14.90;65.30;;;;;;4991468;28;87204;-55
2022/12/01 05:52:54;;;;;;;82.60;59.22;;;14.80;65.30;;;;;;4995650;28;85600;-52
2022/12/01 05:55:20;;;;;;;87.35;60.67;;;14.70;65.50;;;;;;4984951;28;85259;-53
2022/12/01 05:57:46;;;;;;;88.30;61.55;;;14.70;65.90;;;;;;4986881;28;87173;-53
2022/12/01 06:00:13;;;;;;;88.43;61.05;;;14.60;66.00;;;;;;4990201;28;86418;-53
2022/12/01 06:02:40;;;;;;;92.00;61.88;;;14.50;67.50;;;;;;4992582;28;86637;-54
2022/12/01 06:05:07;;;;;;;87.45;60.72;;;14.50;68.00;;;;;;4990136;28;88052;-54
2022/12/01 06:07:34;;;;;;;88.68;61.05;;;14.50;67.90;;;;;;5003673;28;86020;-58
2022/12/01 06:10:00;;;;;;;90.60;60.78;;;14.60;67.40;;;;;;4997769;28;85221;-54
2022/12/01 06:12:26;;;;;;;88.53;60.88;;;14.60;67.00;;;;;;4989379;28;85230;-53
2022/12/01 06:14:52;;;;;;;84.55;60.35;;;14.70;66.60;;;;;;4985356;28;85237;-52
2022/12/01 06:17:17;;;;;;;86.78;60.10;;;14.70;66.60;;;;;;4997329;28;85696;-49
2022/12/01 06:19:43;;;;;;;84.82;59.53;;;14.80;66.80;;;;;;4991545;28;85154;-52
2022/12/01 06:22:09;;;;;;;84.03;59.55;;;14.80;66.40;;;;;;4987908;28;88172;-54
2022/12/01 06:24:35;;;;;;;85.03;59.15;;;14.90;66.20;;;;;;4995853;28;85417;-54
2022/12/01 06:27:01;;;;;;;88.63;59.70;;;15.00;66.00;;;;;;4995117;28;85088;-50
2022/12/01 06:29:27;;;;;;;84.45;59.50;;;15.00;65.80;;;;;;4988873;28;85940;-56
2022/12/01 06:31:52;;;;;;;84.35;58.88;;;14.90;65.90;;;;;;4990410;28;85316;-56
2022/12/01 06:34:18;;;;;;;84.43;59.15;;;14.90;66.20;;;;;;4995535;28;85447;-57
2022/12/01 06:36:44;;;;;;;85.07;60.78;;;14.80;66.60;;;;;;4991232;28;85065;-54
2022/12/01 06:39:09;;;;;;;83.13;59.40;;;14.80;67.10;;;;;;4992842;28;86881;-56
2022/12/01 06:41:38;;;;;;;87.10;59.50;;;14.80;67.30;;;;;;4990364;28;86946;-55
2022/12/01 06:44:04;;;;;;;89.40;61.25;;;14.80;67.60;;;;;;4996336;28;85264;-55
2022/12/01 06:46:30;;;;;;;87.35;60.40;;;14.80;67.60;;;;;;4996252;28;85369;-52
2022/12/01 06:48:55;;;;;;;85.38;59.22;;;14.80;67.60;;;;;;4981353;28;85520;-56
2022/12/01 06:51:22;;;;;;;85.35;58.97;;;14.80;67.90;;;;;;4992417;28;85513;-55
2022/12/01 06:53:51;;;;;;;88.18;59.47;;;14.80;68.10;;;;;;4995972;28;85302;-54
2022/12/01 06:56:17;;;;;;;88.82;59.38;;;14.80;68.00;;;;;;4996762;28;84964;-57
2022/12/01 06:58:42;;;;;;;89.32;59.97;;;14.90;67.80;;;;;;4997791;28;84964;-57
2022/12/01 07:01:11;;;;;;;87.13;60.08;;;14.80;67.70;;;;;;4976866;28;86671;-54
2022/12/01 07:03:38;;;;;;;82.95;58.97;;;14.90;67.50;;;;;;4986054;28;85256;-56
2022/12/01 07:06:04;;;;;;;84.10;58.85;;;14.90;67.70;;;;;;4989342;28;85332;-56
2022/12/01 07:08:30;;;;;;;88.88;59.00;;;14.90;67.70;;;;;;4992008;28;85246;-54
2022/12/01 07:11:01;;;;;;;84.45;59.28;;;15.00;67.60;;;;;;4991092;28;86601;-56
2022/12/01 07:13:27;;;;;;;83.82;58.78;;;15.00;67.30;;;;;;4989919;28;85116;-55
2022/12/01 07:15:53;;;;;;;84.38;58.45;;;15.00;67.40;;;;;;4989006;28;87312;-55
2022/12/01 07:18:19;;;;;;;86.70;59.40;;;15.00;67.60;;;;;;4977247;28;87163;-56
2022/12/01 07:20:45;;;;;;;86.28;58.13;;;15.00;67.50;;;;;;4992182;28;85729;-54
2022/12/01 07:23:10;;;;;;;85.80;58.60;;;15.10;67.60;;;;;;4983357;28;85709;-56
2022/12/01 07:25:36;;;;;;;86.32;57.85;;;15.10;67.30;;;;;;4996221;28;86693;-55
2022/12/01 07:28:02;;;;;;;85.05;58.13;;;15.10;67.30;;;;;;4992247;28;85064;-55
2022/12/01 07:30:27;;;;;;;83.57;58.00;;;15.10;67.10;;;;;;4989066;28;85780;-57
2022/12/01 07:32:53;;;;;;;85.60;58.33;;;15.10;67.00;;;;;;4990628;28;85675;-55
2022/12/01 07:35:19;;;;;;;83.10;57.15;;;15.10;66.80;;;;;;4992034;28;86746;-56
2022/12/01 07:37:44;;;;;;;81.65;57.28;;;15.10;66.70;;;;;;4991437;28;85541;-53
2022/12/01 07:40:11;;;;;;;84.38;57.20;;;15.10;66.60;;;;;;4988514;28;85572;-56
2022/12/01 07:42:40;;;;;;;85.40;58.80;;;15.30;66.40;;;;;;4975018;28;86473;-57
2022/12/01 07:45:06;;;;;;;84.63;57.60;;;15.40;66.00;;;;;;4991487;28;85466;-57
2022/12/01 07:47:32;;;;;;;85.80;58.25;;;15.50;65.70;;;;;;4972346;28;86019;-55
2022/12/01 07:49:58;;;;;;;94.22;59.30;;;15.60;65.70;;;;;;4985723;28;86352;-58
2022/12/01 07:52:24;;;;;;;90.10;59.58;;;15.60;65.60;;;;;;4988290;28;85241;-57
2022/12/01 07:54:49;;;;;;;98.50;61.20;;;15.70;65.50;;;;;;4981937;28;85874;-50
2022/12/01 07:57:17;;;;;;;95.65;62.22;;;15.70;65.70;;;;;;4985065;28;85746;-47
2022/12/01 07:59:42;;;;;;;103.03;63.20;;;15.70;65.80;;;;;;4983017;28;92574;-48
2022/12/01 08:02:09;;;;;;;102.22;63.13;;;15.70;65.50;;;;;;4995936;27;85300;-50
2022/12/01 08:04:35;;;;;;;107.45;64.07;;;15.70;65.30;;;;;;4986857;28;86561;-49
2022/12/01 08:07:01;;;;;;;112.32;63.85;;;15.70;65.20;;;;;;4991359;28;85062;-48
2022/12/01 08:09:26;;;;;;;117.25;64.53;;;15.70;66.00;;;;;;4986965;28;86140;-51
2022/12/01 08:11:52;;;;;;;112.07;63.58;;;15.60;66.10;;;;;;4989025;28;85800;-49
2022/12/01 08:14:18;;;;;;;107.30;62.42;;;15.50;66.30;;;;;;4979944;28;85607;-50
2022/12/01 08:16:43;;;;;;;104.82;62.65;;;15.50;66.30;;;;;;4990011;28;85608;-51
2022/12/01 08:19:09;;;;;;;96.22;61.78;;;15.50;66.00;;;;;;4992956;28;85093;-49
2022/12/01 08:21:36;;;;;;;100.18;62.00;;;15.60;66.10;;;;;;4990558;28;86050;-47
2022/12/01 08:24:03;;;;;;;97.53;61.72;;;15.60;65.60;;;;;;4990872;28;84966;-52
2022/12/01 08:26:28;;;;;;;99.25;61.67;;;15.60;65.40;;;;;;4988273;28;88373;-50
2022/12/01 08:28:55;;;;;;;91.90;60.20;;;15.60;65.50;;;;;;4995324;28;86607;-52
2022/12/01 08:31:30;;;;;;;97.90;61.03;;;15.60;65.70;;;;;;4995298;28;85995;-55
2022/12/01 08:33:56;;;;;;;96.25;60.90;;;15.70;65.70;;;;;;4998640;28;84970;-54
2022/12/01 08:36:22;;;;;;;97.97;61.55;;;15.70;66.00;;;;;;4990234;28;85524;-54
2022/12/01 08:38:51;;;;;;;93.68;60.70;;;15.70;65.80;;;;;;4997437;28;85070;-54
2022/12/01 08:41:18;;;;;;;91.45;60.25;;;15.80;66.60;;;;;;4994336;27;85954;-54
2022/12/01 08:43:43;;;;;;;95.40;61.03;;;15.80;65.80;;;;;;4997798;28;85668;-56
2022/12/01 08:46:11;;;;;;;95.80;60.17;;;15.70;65.80;;;;;;4995997;28;86554;-51
2022/12/01 08:48:38;;;;;;;96.00;59.75;;;15.70;65.70;;;;;;4987556;28;85677;-54
2022/12/01 08:51:12;;;;;;;89.18;59.30;;;15.80;65.70;;;;;;4991436;28;85820;-53
2022/12/01 08:53:41;;;;;;;90.30;60.15;;;15.80;65.70;;;;;;4993658;28;85725;-54
2022/12/01 08:56:31;;;;;;;88.65;60.45;;;15.80;65.70;;;;;;4997360;28;85436;-56
2022/12/01 08:58:57;;;;;;;91.90;61.67;;;15.80;65.90;;;;;;4991167;28;92192;-54
2022/12/01 09:01:24;;;;;;;91.63;61.85;;;15.80;65.70;;;;;;4982027;28;85524;-54
2022/12/01 09:04:07;;;;;;;90.72;61.03;;;15.80;66.10;;;;;;4980485;28;86079;-50
2022/12/01 09:06:44;;;;;;;91.20;60.88;;;15.70;66.30;;;;;;4992528;28;86046;-51
2022/12/01 09:09:12;;;;;;;91.05;60.20;;;15.70;66.30;;;;;;4988660;28;85789;-53
2022/12/01 09:11:39;;;;;;;91.55;61.80;;;15.80;66.40;;;;;;4985216;28;85620;-48
2022/12/01 09:14:05;;;;;;;90.60;59.58;;;15.80;66.20;;;;;;4987824;28;85289;-47
2022/12/01 09:16:30;;;;;;;86.32;59.45;;;15.80;65.80;;;;;;4992119;28;85348;-51
2022/12/01 09:18:56;;;;;;;91.20;60.78;;;15.80;66.20;;;;;;4989558;28;85585;-49
2022/12/01 09:21:25;;;;;;;86.88;59.58;;;15.80;65.90;;;;;;4991149;28;85510;-52
2022/12/01 09:23:51;;;;;;;88.85;59.60;;;15.80;66.00;;;;;;4990965;28;85110;-53
2022/12/01 09:26:18;;;;;;;88.05;61.10;;;15.80;66.00;;;;;;4995002;28;86281;-55
2022/12/01 09:28:49;;;;;;;88.07;60.40;;;15.90;66.10;;;;;;4987493;28;85520;-52
2022/12/01 09:31:15;;;;;;;93.10;59.72;;;15.90;66.10;;;;;;4993080;28;86452;-48
2022/12/01 09:33:41;;;;;;;87.15;60.17;;;16.00;66.30;;;;;;4991986;28;85534;-52
2022/12/01 09:36:08;;;;;;;88.25;59.88;;;15.90;65.90;;;;;;4996064;28;87675;-55
2022/12/01 09:38:36;;;;;;;87.15;59.72;;;16.00;65.90;;;;;;4987160;28;86266;-51
2022/12/01 09:41:07;;;;;;;84.90;59.78;;;16.00;65.90;;;;;;4994477;28;86513;-52
2022/12/01 09:43:46;;;;;;;85.65;60.03;;;16.00;66.00;;;;;;4985505;28;86059;-52
2022/12/01 09:46:19;;;;;;;88.88;60.00;;;16.00;66.00;;;;;;4995588;27;84950;-54
2022/12/01 09:48:47;;;;;;;90.15;58.90;;;16.00;65.80;;;;;;4987150;28;84970;-53
2022/12/01 09:51:14;;;;;;;87.03;59.72;;;16.10;65.70;;;;;;4992463;28;86572;-53
2022/12/01 09:53:40;;;;;;;88.30;60.50;;;16.00;65.50;;;;;;4991606;28;85675;-53
2022/12/01 09:56:23;;;;;;;84.95;59.13;;;16.10;65.50;;;;;;4997889;28;85633;-53
2022/12/01 09:58:58;;;;;;;88.55;60.00;;;16.10;65.50;;;;;;4992600;28;85598;-53
2022/12/01 10:01:42;;;;;;;85.35;58.53;;;16.10;65.30;;;;;;4995988;28;86644;-54
2022/12/01 10:04:19;;;;;;;84.78;58.60;;;16.10;65.50;;;;;;4997118;28;85501;-53
2022/12/01 10:07:05;;;;;;;85.50;58.92;;;16.10;65.70;;;;;;4988617;28;86374;-49
2022/12/01 10:09:45;;;;;;;88.07;58.72;;;16.20;65.30;;;;;;4974904;28;85527;-50
2022/12/01 10:12:18;;;;;;;87.13;59.63;;;16.10;65.40;;;;;;4987222;28;86642;-52
2022/12/01 10:14:46;;;;;;;89.50;59.05;;;16.20;65.30;;;;;;4990490;28;85541;-55
2022/12/01 10:17:23;;;;;;;85.38;58.42;;;16.20;65.10;;;;;;4993466;28;85546;-52
2022/12/01 10:20:01;;;;;;;85.15;58.70;;;16.20;65.10;;;;;;4992799;28;86714;-53
2022/12/01 10:22:45;;;;;;;86.53;59.30;;;16.30;65.30;;;;;;4990259;28;85605;-51
2022/12/01 10:25:30;;;;;;;86.25;58.85;;;16.30;65.20;;;;;;4995139;28;85599;-52
2022/12/01 10:28:33;;;;;;;84.65;58.75;;;16.30;64.90;;;;;;4990992;28;85611;-54
2022/12/01 10:31:10;;;;;;;83.10;58.78;;;16.30;64.90;;;;;;4991200;28;85923;-55
2022/12/01 10:33:50;;;;;;;81.68;57.72;;;16.30;64.90;;;;;;4996830;28;86304;-54
2022/12/01 10:36:15;;;;;;;82.90;58.47;;;16.30;64.70;;;;;;4993581;28;86118;-56
2022/12/01 10:38:41;;;;;;;87.50;59.58;;;16.40;64.60;;;;;;4987498;28;86518;-52
2022/12/01 10:41:13;;;;;;;83.22;57.58;;;16.40;64.60;;;;;;4996656;28;85390;-50
2022/12/01 10:43:48;;;;;;;83.07;57.97;;;16.40;64.30;;;;;;4993741;28;85964;-54
2022/12/01 10:46:24;;;;;;;85.20;57.58;;;16.50;64.30;;;;;;4988509;28;85415;-54
2022/12/01 10:48:58;;;;;;;83.00;58.05;;;16.50;64.10;;;;;;4990795;28;88163;-52
2022/12/01 10:51:25;;;;;;;83.15;58.42;;;16.60;64.40;;;;;;4997541;28;86435;-54
2022/12/01 10:54:05;;;;;;;84.60;57.38;;;16.60;63.90;;;;;;4990067;28;85223;-53
2022/12/01 10:56:31;;;;;;;84.57;57.28;;;16.70;63.80;;;;;;4993537;28;88397;-54
2022/12/01 10:59:04;;;;;;;82.38;57.78;;;16.80;63.70;;;;;;4996169;28;85645;-53
2022/12/01 11:01:34;;;;;;;81.75;57.05;;;16.80;63.50;;;;;;4987203;28;86313;-51
2022/12/01 11:04:06;;;;;;;82.60;56.88;;;16.90;63.30;;;;;;4986583;28;85444;-54
2022/12/01 11:06:33;;;;;;;82.70;56.95;;;16.90;63.10;;;;;;4993375;28;85140;-54
2022/12/01 11:09:16;;;;;;;83.65;56.50;;;16.80;63.50;;;;;;4993514;28;86124;-55
2022/12/01 11:11:42;;;;;;;83.10;57.00;;;16.80;63.40;;;;;;4993788;28;85286;-47
2022/12/01 11:14:20;;;;;;;81.25;57.00;;;16.80;63.20;;;;;;4992675;28;85436;-52
2022/12/01 11:16:48;;;;;;;88.50;57.58;;;16.70;63.40;;;;;;4981677;28;85074;-50
2022/12/01 11:19:26;;;;;;;81.95;56.80;;;16.70;63.10;;;;;;4984891;28;85583;-52
2022/12/01 11:21:54;;;;;;;85.93;56.53;;;16.60;63.40;;;;;;4985404;28;85522;-51
2022/12/01 11:24:59;;;;;;;82.00;56.53;;;16.60;63.60;;;;;;4990583;28;86737;-49
2022/12/01 11:27:33;;;;;;;79.85;55.63;;;16.60;63.60;;;;;;4991226;28;87166;-48
2022/12/01 11:30:06;;;;;;;82.65;57.03;;;16.70;63.70;;;;;;4986869;28;85399;-52
2022/12/01 11:32:36;;;;;;;84.28;56.97;;;16.60;63.10;;;;;;4990688;28;85903;-49
2022/12/01 11:35:14;;;;;;;83.75;56.85;;;16.60;63.00;;;;;;5001154;28;87274;-49
2022/12/01 11:37:45;;;;;;;83.38;56.35;;;16.60;63.00;;;;;;4992465;28;85608;-50
2022/12/01 11:40:22;;;;;;;80.55;56.80;;;16.60;63.30;;;;;;4996739;28;85427;-50
2022/12/01 11:42:51;;;;;;;85.22;57.45;;;16.60;63.80;;;;;;4989547;28;87428;-51
2022/12/01 11:45:19;;;;;;;84.88;56.97;;;16.50;63.40;;;;;;4992769;28;85661;-50
2022/12/01 11:48:17;;;;;;;84.88;57.03;;;16.50;63.80;;;;;;4995316;28;85365;-53
2022/12/01 11:50:58;;;;;;;84.00;56.58;;;16.60;64.20;;;;;;4988229;28;85488;-50
2022/12/01 11:53:31;;;;;;;83.65;57.47;;;16.60;64.50;;;;;;4992914;28;85826;-51
2022/12/01 11:56:27;;;;;;;84.75;57.20;;;16.60;64.50;;;;;;4990253;28;85634;-51
2022/12/01 11:59:13;;;;;;;81.50;57.17;;;16.60;65.00;;;;;;4993503;28;85779;-57
2022/12/01 12:02:21;;;;;;;83.55;56.78;;;16.70;65.50;;;;;;4991604;28;85309;-52
2022/12/01 12:04:58;;;;;;;83.88;57.20;;;16.70;65.90;;;;;;4996343;28;85409;-53
2022/12/01 12:07:39;;;;;;;85.00;57.58;;;16.80;65.90;;;;;;4993454;28;88059;-57
2022/12/01 12:10:19;;;;;;;87.32;57.22;;;16.70;66.10;;;;;;4996622;28;85341;-53
2022/12/01 12:13:13;;;;;;;83.13;57.28;;;16.80;65.90;;;;;;4988158;28;86388;-51
2022/12/01 12:16:00;;;;;;;82.40;56.42;;;16.80;66.20;;;;;;4990483;28;86697;-55
2022/12/01 12:18:37;;;;;;;81.85;56.95;;;16.90;66.50;;;;;;4989787;28;85945;-57
2022/12/01 12:21:23;;;;;;;83.32;57.03;;;16.90;66.70;;;;;;4992309;28;86079;-50
2022/12/01 12:23:52;;;;;;;83.15;56.72;;;16.80;66.80;;;;;;4995062;28;86062;-56
2022/12/01 12:26:31;;;;;;;81.55;56.65;;;16.90;66.70;;;;;;4995206;28;85494;-59
2022/12/01 12:29:26;;;;;;;82.53;56.55;;;16.90;66.70;;;;;;4992699;28;85866;-57
2022/12/01 12:32:10;;;;;;;82.97;57.20;;;16.90;66.60;;;;;;4994073;28;85785;-56
2022/12/01 12:35:03;;;;;;;80.60;56.72;;;17.00;66.70;;;;;;4983013;28;85618;-51
2022/12/01 12:37:47;;;;;;;82.00;56.88;;;17.00;67.10;;;;;;4995510;28;85564;-53
2022/12/01 12:40:34;;;;;;;82.97;57.38;;;17.00;67.10;;;;;;4992620;28;85802;-54
2022/12/01 12:43:20;;;;;;;83.30;56.72;;;16.90;67.10;;;;;;4993061;28;85777;-53
2022/12/01 12:45:58;;;;;;;84.93;58.35;;;17.00;67.10;;;;;;4987752;28;85900;-53
2022/12/01 12:49:01;;;;;;;83.65;58.20;;;17.00;67.20;;;;;;4984496;28;85942;-53
2022/12/01 12:51:33;;;;;;;82.05;56.75;;;17.00;66.90;;;;;;4982652;28;86731;-52